Time;durP1;ratioP1;P1;durP2;ratioP2;P2;SDS_P1;SDS_P2;PMS_P1;PMS_P2;Temp;Humidity;BMP_temperature;BMP_pressure;BME280_temperature;BME280_humidity;BME280_pressure;Samples;Min_cycle;Max_cycle;Signal;HPM_P1;HPM_P2
2022/01/31 00:01:54;;;;;;;12.15;8.50;;;;;;;2.78;84.69;98577.47;4126414;28;20787;-86
2022/01/31 00:03:57;;;;;;;13.13;8.15;;;;;;;2.77;83.85;98574.97;4128991;28;20206;-86
2022/01/31 00:06:06;;;;;;;21.40;8.60;;;;;;;2.71;84.08;98573.44;4128519;28;23355;-87
2022/01/31 00:08:09;;;;;;;19.52;8.88;;;;;;;2.72;84.34;98572.56;4131082;28;20215;-86
2022/01/31 00:10:13;;;;;;;21.13;9.00;;;;;;;2.73;84.02;98565.66;4141993;28;20714;-87
2022/01/31 00:12:25;;;;;;;17.08;8.45;;;;;;;2.70;84.69;98558.88;4113270;28;20573;-86
2022/01/31 00:14:37;;;;;;;14.90;8.35;;;;;;;2.75;84.31;98554.41;4112235;28;20680;-86
2022/01/31 00:16:40;;;;;;;14.43;7.72;;;;;;;2.76;84.50;98558.69;4126167;28;20220;-86
2022/01/31 00:18:44;;;;;;;17.17;8.30;;;;;;;2.74;84.47;98555.31;4136293;28;20211;-86
2022/01/31 00:20:48;;;;;;;15.73;8.40;;;;;;;2.71;84.96;98547.69;4128520;28;20205;-87
2022/01/31 00:22:51;;;;;;;13.05;8.65;;;;;;;2.65;84.67;98544.47;4140767;28;20677;-87
2022/01/31 00:24:54;;;;;;;13.18;7.97;;;;;;;2.68;84.61;98539.22;4122178;28;20212;-86
2022/01/31 00:26:57;;;;;;;15.70;8.63;;;;;;;2.67;84.84;98532.38;4125613;28;20219;-86
2022/01/31 00:29:00;;;;;;;12.52;8.15;;;;;;;2.68;84.97;98519.47;4111457;28;20326;-87
2022/01/31 00:31:03;;;;;;;19.52;8.65;;;;;;;2.68;84.32;98516.88;4127416;28;20216;-86
2022/01/31 00:33:07;;;;;;;13.65;7.57;;;;;;;2.71;84.00;98515.97;4111144;28;20565;-87
2022/01/31 00:35:13;;;;;;;15.63;8.82;;;;;;;2.69;84.37;98518.59;4123837;28;20205;-87
2022/01/31 00:37:17;;;;;;;21.77;9.05;;;;;;;2.71;84.60;98524.53;4112378;28;20225;-86
2022/01/31 00:39:20;;;;;;;16.40;8.68;;;;;;;2.73;85.05;98515.00;4109733;28;20326;-86
2022/01/31 00:41:23;;;;;;;16.50;9.30;;;;;;;2.77;84.85;98519.19;4122966;28;20205;-87
2022/01/31 00:43:29;;;;;;;13.07;9.15;;;;;;;2.79;84.40;98509.66;4125067;28;20291;-86
2022/01/31 00:45:42;;;;;;;19.08;8.75;;;;;;;2.82;85.13;98497.53;4140820;28;20299;-86
2022/01/31 00:47:49;;;;;;;12.20;8.18;;;;;;;2.83;84.82;98488.09;4111300;28;20205;-87
2022/01/31 00:49:55;;;;;;;14.80;8.27;;;;;;;2.84;84.46;98482.03;4124627;28;20267;-87
2022/01/31 00:51:59;;;;;;;19.25;7.90;;;;;;;2.85;84.36;98456.25;4134634;28;20271;-87
2022/01/31 00:54:03;;;;;;;11.63;8.40;;;;;;;2.83;85.36;98455.47;4124630;28;20681;-86
2022/01/31 00:56:09;;;;;;;19.92;8.50;;;;;;;2.84;85.08;98449.44;4125532;28;20208;-86
2022/01/31 00:58:15;;;;;;;13.95;7.72;;;;;;;2.82;85.24;98455.50;4122902;28;20644;-87
2022/01/31 01:00:19;;;;;;;16.95;7.80;;;;;;;2.84;85.36;98453.72;4112690;28;20202;-87
2022/01/31 01:02:23;;;;;;;18.63;7.55;;;;;;;2.90;85.23;98450.94;4115343;28;20425;-87
2022/01/31 01:04:26;;;;;;;14.18;8.65;;;;;;;2.91;85.11;98453.47;4127878;28;20255;-87
2022/01/31 01:06:29;;;;;;;17.35;8.70;;;;;;;2.90;85.18;98443.22;4102790;28;20215;-86
2022/01/31 01:08:36;;;;;;;15.50;9.57;;;;;;;2.89;84.69;98431.25;4111129;28;20204;-86
2022/01/31 01:10:39;;;;;;;17.30;8.63;;;;;;;2.86;84.92;98421.88;4111255;28;20213;-87
2022/01/31 01:12:43;;;;;;;17.35;9.60;;;;;;;2.84;84.88;98428.81;4124140;28;20260;-86
2022/01/31 01:14:48;;;;;;;20.42;9.30;;;;;;;2.88;85.35;98424.41;4111632;28;20744;-87
2022/01/31 01:16:53;;;;;;;20.10;8.70;;;;;;;2.90;85.30;98423.47;4108073;28;20273;-86
2022/01/31 01:18:56;;;;;;;14.10;9.55;;;;;;;2.92;85.33;98426.00;4119046;28;20304;-87
2022/01/31 01:21:00;;;;;;;12.68;7.95;;;;;;;2.98;84.95;98412.94;4111736;28;20209;-87
2022/01/31 01:23:03;;;;;;;13.55;8.73;;;;;;;2.99;85.43;98406.84;4109493;28;20205;-87
2022/01/31 01:25:09;;;;;;;13.90;8.70;;;;;;;3.01;85.35;98410.25;4112768;28;20210;-86
2022/01/31 01:27:14;;;;;;;14.10;9.07;;;;;;;2.98;85.21;98387.19;4120722;28;20208;-86
2022/01/31 01:29:19;;;;;;;13.13;8.60;;;;;;;2.96;85.11;98381.22;4107490;28;20205;-86
2022/01/31 01:31:22;;;;;;;17.55;9.18;;;;;;;2.92;85.15;98380.47;4143745;28;20264;-86
2022/01/31 01:33:25;;;;;;;16.00;8.63;;;;;;;2.92;85.13;98383.06;4113071;28;20349;-87
2022/01/31 01:35:33;;;;;;;15.50;8.35;;;;;;;2.96;85.06;98376.06;4107876;28;20213;-87
2022/01/31 01:37:36;;;;;;;18.10;9.75;;;;;;;2.97;85.36;98373.44;4119490;28;20205;-86
2022/01/31 01:39:41;;;;;;;18.10;9.15;;;;;;;2.99;85.85;98361.38;4122590;28;20246;-86
2022/01/31 01:41:46;;;;;;;14.15;8.80;;;;;;;3.03;85.44;98350.03;4109467;28;20228;-87
2022/01/31 01:43:49;;;;;;;17.30;8.82;;;;;;;3.06;85.40;98336.22;4134196;28;20298;-86
2022/01/31 01:45:54;;;;;;;13.30;8.13;;;;;;;3.08;85.39;98322.41;4112618;28;20292;-87
2022/01/31 01:48:00;;;;;;;14.65;7.55;;;;;;;3.12;85.34;98305.94;4127668;28;20240;-87
2022/01/31 01:50:04;;;;;;;17.55;8.43;;;;;;;3.14;85.92;98272.41;4111026;28;20324;-87
2022/01/31 01:52:11;;;;;;;16.88;8.60;;;;;;;3.15;86.37;98261.22;4122175;28;20271;-86
2022/01/31 01:54:16;;;;;;;20.98;9.35;;;;;;;3.12;86.26;98245.88;4111629;28;20256;-87
2022/01/31 01:56:19;;;;;;;13.80;9.05;;;;;;;3.11;85.72;98241.59;4120488;28;22297;-87
2022/01/31 01:58:25;;;;;;;16.92;7.65;;;;;;;3.12;85.22;98232.97;4109939;28;20236;-86
2022/01/31 02:00:43;;;;;;;13.30;6.85;;;;;;;3.17;85.99;98229.31;4107672;28;20292;-87
2022/01/31 02:02:47;;;;;;;12.90;7.05;;;;;;;3.29;86.08;98237.47;4110670;28;20205;-87
2022/01/31 02:04:54;;;;;;;13.48;7.80;;;;;;;3.33;85.62;98236.44;4122547;28;20631;-86
2022/01/31 02:07:14;;;;;;;17.85;8.57;;;;;;;3.31;85.31;98221.94;4122379;28;20223;-87
2022/01/31 02:09:21;;;;;;;17.65;9.20;;;;;;;3.30;85.98;98212.53;4109365;28;20231;-87
2022/01/31 02:11:27;;;;;;;17.50;9.32;;;;;;;3.32;86.20;98210.72;4126985;28;20200;-87
2022/01/31 02:13:35;;;;;;;15.18;9.00;;;;;;;3.29;85.73;98188.50;4109043;28;20236;-86
2022/01/31 02:15:58;;;;;;;12.00;8.82;;;;;;;3.27;86.12;98172.25;4065479;28;20225;-87
2022/01/31 02:18:14;;;;;;;13.25;8.60;;;;;;;3.29;85.64;98180.78;4126455;28;20283;-87
2022/01/31 02:20:18;;;;;;;13.75;7.93;;;;;;;3.25;85.22;98182.66;4108899;28;20712;-87
2022/01/31 02:22:22;;;;;;;15.45;9.25;;;;;;;3.21;85.56;98170.81;4107755;28;20903;-87
2022/01/31 02:24:48;;;;;;;14.13;8.18;;;;;;;3.24;86.56;98139.78;4116539;28;20205;-87
2022/01/31 02:27:11;;;;;;;13.18;7.80;;;;;;;3.27;86.57;98141.31;4121896;28;20258;-86
2022/01/31 02:29:16;;;;;;;15.27;8.73;;;;;;;3.29;86.67;98136.97;4106090;28;20263;-86
2022/01/31 02:31:19;;;;;;;12.13;7.50;;;;;;;3.28;86.20;98137.88;4112243;28;20217;-87
2022/01/31 02:33:23;;;;;;;18.80;8.60;;;;;;;3.31;86.04;98140.31;4111207;28;20260;-86
2022/01/31 02:35:26;;;;;;;15.45;8.15;;;;;;;3.34;86.41;98139.38;4124515;28;20201;-86
2022/01/31 02:37:31;;;;;;;16.80;9.20;;;;;;;3.33;86.10;98135.09;4106808;28;20297;-87
2022/01/31 02:39:52;;;;;;;16.67;7.60;;;;;;;3.38;86.78;98139.19;4126111;28;20357;-87
2022/01/31 02:41:55;;;;;;;16.05;7.85;;;;;;;3.43;86.34;98139.00;4107681;28;20646;-87
2022/01/31 02:44:00;;;;;;;14.65;8.75;;;;;;;3.47;87.29;98136.25;4110692;28;20213;-86
2022/01/31 02:46:07;;;;;;;17.58;9.20;;;;;;;3.50;87.22;98117.22;4110928;28;20202;-86
2022/01/31 02:48:12;;;;;;;16.70;9.25;;;;;;;3.54;86.72;98101.56;4127653;28;20295;-86
2022/01/31 02:50:15;;;;;;;22.90;9.38;;;;;;;3.58;86.42;98092.84;4109268;28;20205;-87
2022/01/31 02:52:18;;;;;;;14.40;8.52;;;;;;;3.61;87.27;98091.84;4122189;28;20237;-87
2022/01/31 02:54:24;;;;;;;13.63;8.75;;;;;;;3.64;86.94;98094.31;4125248;28;20278;-87
2022/01/31 02:56:27;;;;;;;16.13;8.45;;;;;;;3.65;86.61;98089.09;4108262;28;20211;-87
2022/01/31 02:58:30;;;;;;;19.00;8.10;;;;;;;3.66;87.15;98083.03;4107554;28;20221;-87
2022/01/31 03:00:34;;;;;;;14.50;7.25;;;;;;;3.68;86.15;98055.44;4104630;28;20216;-87
2022/01/31 03:02:46;;;;;;;13.55;7.78;;;;;;;3.69;86.47;98051.97;4124254;28;20216;-86
2022/01/31 03:04:49;;;;;;;13.30;7.38;;;;;;;3.69;86.78;98028.78;4106474;28;20300;-86
2022/01/31 03:06:53;;;;;;;13.68;7.70;;;;;;;3.71;85.92;98026.13;4107355;28;20237;-87
2022/01/31 03:08:58;;;;;;;15.88;7.85;;;;;;;3.73;85.58;98014.84;4127806;28;20643;-87
2022/01/31 03:11:13;;;;;;;15.75;8.15;;;;;;;3.74;85.66;98019.09;4106380;28;20205;-86
2022/01/31 03:13:32;;;;;;;14.52;7.60;;;;;;;3.73;85.62;98028.56;4100495;28;20234;-86
2022/01/31 03:15:35;;;;;;;15.65;9.10;;;;;;;3.70;85.08;98035.59;4115847;28;20228;-86
2022/01/31 03:17:49;;;;;;;20.90;9.40;;;;;;;3.71;86.97;98014.06;4141097;28;20278;-85
2022/01/31 03:19:54;;;;;;;16.23;7.80;;;;;;;3.73;86.03;98001.97;4106754;28;20225;-86
2022/01/31 03:21:58;;;;;;;12.05;8.55;;;;;;;3.71;86.84;97998.59;4104610;28;20201;-87
2022/01/31 03:24:01;;;;;;;12.68;7.60;;;;;;;3.70;86.25;97984.06;4139837;28;20587;-87
2022/01/31 03:26:04;;;;;;;11.93;8.38;;;;;;;3.69;86.77;97972.06;4108001;28;20210;-87
2022/01/31 03:28:08;;;;;;;13.70;8.13;;;;;;;3.73;86.09;97976.19;4124116;28;20263;-86
2022/01/31 03:30:14;;;;;;;18.33;8.30;;;;;;;3.71;85.80;97969.41;4110847;28;20217;-86
2022/01/31 03:32:17;;;;;;;14.23;7.80;;;;;;;3.72;86.33;97960.78;4107530;28;20596;-87
2022/01/31 03:34:21;;;;;;;13.35;8.43;;;;;;;3.75;86.54;97948.56;4109727;28;20344;-87
2022/01/31 03:36:24;;;;;;;13.07;8.68;;;;;;;3.78;87.15;97936.38;4124308;28;20653;-87
2022/01/31 03:38:30;;;;;;;11.85;6.43;;;;;;;3.83;86.18;97931.03;4123990;28;20300;-86
2022/01/31 03:40:33;;;;;;;11.23;6.68;;;;;;;3.86;86.99;97916.28;4124392;28;20283;-86
2022/01/31 03:42:37;;;;;;;11.35;6.82;;;;;;;3.91;86.03;97916.03;4109167;28;20208;-86
2022/01/31 03:44:42;;;;;;;18.60;5.55;;;;;;;3.92;86.12;97925.44;4125419;28;20209;-86
2022/01/31 03:46:46;;;;;;;9.90;4.68;;;;;;;4.01;86.35;97928.44;4127222;28;20240;-86
2022/01/31 03:48:54;;;;;;;16.00;4.65;;;;;;;4.06;86.24;97936.84;4125911;28;20247;-87
2022/01/31 03:51:22;;;;;;;13.57;4.85;;;;;;;4.16;86.47;97952.72;4100406;28;20214;-86
2022/01/31 03:53:29;;;;;;;9.77;5.57;;;;;;;4.17;86.43;97941.50;4107957;28;20210;-87
2022/01/31 03:55:32;;;;;;;9.23;5.50;;;;;;;4.21;86.41;97939.53;4118688;28;20201;-87
2022/01/31 03:57:36;;;;;;;12.43;5.90;;;;;;;4.27;85.89;97936.69;4106141;28;20305;-87
2022/01/31 03:59:49;;;;;;;12.75;5.30;;;;;;;4.32;85.65;97952.78;4116864;28;20574;-87
2022/01/31 04:01:55;;;;;;;14.38;5.35;;;;;;;4.39;85.37;97955.91;4114845;28;20290;-87
2022/01/31 04:03:58;;;;;;;8.00;5.07;;;;;;;4.41;85.52;97941.22;4125691;28;20252;-87
2022/01/31 04:06:01;;;;;;;10.93;5.18;;;;;;;4.38;85.17;97936.19;4140408;28;20238;-87
2022/01/31 04:08:04;;;;;;;10.93;5.85;;;;;;;4.43;85.67;97926.47;4124557;28;20205;-87
2022/01/31 04:10:08;;;;;;;15.27;6.32;;;;;;;4.42;85.30;97935.97;4121801;28;20204;-87
2022/01/31 04:12:12;;;;;;;20.58;6.78;;;;;;;4.43;84.80;97923.91;4119863;28;20578;-87
2022/01/31 04:14:15;;;;;;;12.70;6.40;;;;;;;4.45;84.52;97924.66;4126442;28;20864;-87
2022/01/31 04:16:19;;;;;;;14.95;6.32;;;;;;;4.47;84.31;97922.84;4123564;28;20205;-87
2022/01/31 04:18:24;;;;;;;10.75;6.43;;;;;;;4.48;85.28;97914.19;4124441;28;20236;-87
2022/01/31 04:20:27;;;;;;;15.02;7.35;;;;;;;4.52;85.96;97913.13;4122659;28;20736;-87
2022/01/31 04:22:35;;;;;;;14.45;5.90;;;;;;;4.55;84.47;97907.84;4123089;28;20212;-87
2022/01/31 04:24:40;;;;;;;11.90;6.40;;;;;;;4.56;85.65;97901.78;4144137;28;20593;-87
2022/01/31 04:26:54;;;;;;;8.93;5.10;;;;;;;4.60;85.57;97903.28;4139571;28;20205;-88
2022/01/31 04:29:04;;;;;;;13.23;5.35;;;;;;;4.63;85.03;97893.66;4125025;28;20243;-87
2022/01/31 04:31:24;;;;;;;9.80;5.38;;;;;;;4.68;84.91;97883.09;4122579;28;20296;-87
2022/01/31 04:33:29;;;;;;;13.52;5.00;;;;;;;4.70;84.32;97882.09;4140410;28;20212;-87
2022/01/31 04:35:32;;;;;;;9.15;6.15;;;;;;;4.73;84.81;97871.63;4126185;28;20601;-87
2022/01/31 04:37:35;;;;;;;12.65;5.15;;;;;;;4.75;84.87;97872.38;4126378;28;20202;-87
2022/01/31 04:39:38;;;;;;;14.15;5.47;;;;;;;4.76;84.75;97868.91;4125765;28;20212;-87
2022/01/31 04:41:42;;;;;;;9.85;5.32;;;;;;;4.79;83.67;97866.16;4127460;28;20295;-87
2022/01/31 04:43:47;;;;;;;8.63;4.22;;;;;;;4.81;84.06;97861.75;4120764;28;20213;-87
2022/01/31 04:45:50;;;;;;;19.75;5.53;;;;;;;4.84;83.39;97843.50;4126076;28;20280;-87
2022/01/31 04:47:53;;;;;;;9.48;4.80;;;;;;;4.84;83.93;97830.59;4143124;28;20262;-88
2022/01/31 04:49:58;;;;;;;8.80;4.88;;;;;;;4.85;84.00;97819.38;4126351;28;20272;-86
2022/01/31 04:52:01;;;;;;;9.30;4.97;;;;;;;4.78;83.39;97805.06;4144595;28;20200;-87
2022/01/31 04:54:04;;;;;;;11.27;4.90;;;;;;;4.76;83.66;97791.41;4129217;28;20308;-87
2022/01/31 04:56:07;;;;;;;9.88;4.45;;;;;;;4.78;83.42;97789.59;4124307;28;20778;-87
2022/01/31 04:58:11;;;;;;;8.75;4.97;;;;;;;4.77;83.01;97777.59;4125898;28;20311;-88
2022/01/31 05:00:14;;;;;;;16.38;4.88;;;;;;;4.75;83.31;97775.09;4122414;28;20266;-87
2022/01/31 05:02:17;;;;;;;10.38;4.18;;;;;;;4.68;83.97;97765.16;4125281;28;20244;-87
2022/01/31 05:04:21;;;;;;;10.90;4.47;;;;;;;4.59;82.91;97765.63;4127341;28;20213;-86
2022/01/31 05:06:31;;;;;;;9.52;5.10;;;;;;;4.57;83.02;97751.09;4126918;28;20225;-87
2022/01/31 05:08:35;;;;;;;11.70;5.53;;;;;;;4.52;83.55;97728.09;4124973;28;20201;-88
2022/01/31 05:10:43;;;;;;;12.65;4.65;;;;;;;4.54;83.88;97726.28;4141075;28;20295;-87
2022/01/31 05:12:46;;;;;;;7.63;3.97;;;;;;;4.50;83.30;97713.63;4126089;28;20329;-87
2022/01/31 05:14:49;;;;;;;9.45;4.47;;;;;;;4.47;84.50;97714.59;4146490;28;20212;-87
2022/01/31 05:16:52;;;;;;;9.68;4.53;;;;;;;4.51;84.35;97694.63;4129636;28;20201;-87
2022/01/31 05:18:57;;;;;;;9.35;4.57;;;;;;;4.45;83.87;97685.47;4128596;28;20212;-86
2022/01/31 05:21:00;;;;;;;8.02;4.20;;;;;;;4.44;84.24;97676.03;4142701;28;20303;-86
2022/01/31 05:23:07;;;;;;;11.13;4.72;;;;;;;4.50;84.48;97677.47;4125497;28;20221;-87
2022/01/31 05:25:10;;;;;;;7.03;3.95;;;;;;;4.53;83.29;97667.81;4125817;28;20208;-87
2022/01/31 05:27:14;;;;;;;8.23;5.28;;;;;;;4.44;83.92;97663.13;4129740;28;20744;-86
2022/01/31 05:29:17;;;;;;;8.95;3.70;;;;;;;4.41;84.48;97659.88;4125779;28;20202;-87
2022/01/31 05:31:25;;;;;;;9.65;4.40;;;;;;;4.42;84.17;97666.69;4127015;28;20570;-86
2022/01/31 05:33:30;;;;;;;6.22;3.78;;;;;;;4.43;84.75;97664.03;4125188;28;20660;-86
2022/01/31 05:35:33;;;;;;;8.45;4.05;;;;;;;4.47;85.25;97664.72;4121529;28;20633;-86
2022/01/31 05:37:37;;;;;;;7.72;4.30;;;;;;;4.43;85.60;97656.28;4144652;28;20656;-87
2022/01/31 05:39:43;;;;;;;11.07;4.80;;;;;;;4.38;84.11;97644.56;4126959;28;20661;-86
2022/01/31 05:41:46;;;;;;;9.93;4.68;;;;;;;4.38;85.25;97650.53;4125069;28;20315;-87
2022/01/31 05:43:53;;;;;;;13.43;4.35;;;;;;;4.36;84.70;97643.78;4120898;28;20202;-86
2022/01/31 05:45:56;;;;;;;12.07;4.47;;;;;;;4.36;85.73;97630.88;4138774;28;20222;-87
2022/01/31 05:47:59;;;;;;;10.20;4.68;;;;;;;4.30;85.88;97623.44;4143654;28;20223;-87
2022/01/31 05:50:02;;;;;;;7.78;4.65;;;;;;;4.29;85.98;97617.47;4123364;28;20259;-87
2022/01/31 05:52:07;;;;;;;7.75;4.30;;;;;;;4.37;86.38;97615.31;4126176;28;20240;-86
2022/01/31 05:54:11;;;;;;;10.93;5.13;;;;;;;4.34;86.48;97610.31;4124422;28;20212;-87
2022/01/31 05:56:16;;;;;;;11.20;4.55;;;;;;;4.31;85.98;97605.28;4127547;28;20300;-86
2022/01/31 05:58:19;;;;;;;9.30;4.88;;;;;;;4.35;86.23;97606.81;4124189;28;20209;-87
2022/01/31 06:00:22;;;;;;;9.18;5.07;;;;;;;4.32;86.74;97596.66;4125596;28;20224;-87
2022/01/31 06:02:25;;;;;;;10.35;5.15;;;;;;;4.29;86.74;97596.81;4122734;28;20697;-87
2022/01/31 06:04:34;;;;;;;9.75;4.63;;;;;;;4.30;87.12;97585.59;4113081;28;20220;-87
2022/01/31 06:06:37;;;;;;;12.10;4.88;;;;;;;4.31;86.75;97587.22;4125153;28;20224;-87
2022/01/31 06:08:43;;;;;;;7.18;4.63;;;;;;;4.33;87.36;97585.44;4125012;28;20260;-86
2022/01/31 06:10:48;;;;;;;11.80;4.68;;;;;;;4.32;86.96;97588.09;4127594;28;20209;-87
2022/01/31 06:12:53;;;;;;;13.90;4.75;;;;;;;4.34;87.65;97584.50;4112488;28;20221;-87
2022/01/31 06:14:56;;;;;;;8.02;4.90;;;;;;;4.38;86.54;97572.28;4123847;28;20209;-88
2022/01/31 06:16:59;;;;;;;10.07;4.80;;;;;;;4.34;86.58;97574.19;4142087;28;20650;-87
2022/01/31 06:19:05;;;;;;;10.18;4.78;;;;;;;4.34;86.93;97571.59;4124597;28;20618;-87
2022/01/31 06:21:08;;;;;;;11.80;4.70;;;;;;;4.40;87.34;97565.28;4109861;28;20241;-87
2022/01/31 06:23:11;;;;;;;11.02;4.43;;;;;;;4.38;88.25;97556.81;4128163;28;20299;-87
2022/01/31 06:25:16;;;;;;;10.02;4.65;;;;;;;4.41;87.93;97557.47;4108953;28;20197;-87
2022/01/31 06:27:21;;;;;;;8.77;5.15;;;;;;;4.50;88.56;97559.56;4118809;28;20746;-87
2022/01/31 06:29:26;;;;;;;13.80;4.57;;;;;;;4.52;87.37;97546.56;4136995;28;20216;-87
2022/01/31 06:31:41;;;;;;;8.50;4.63;;;;;;;4.50;87.49;97554.41;4106143;28;20300;-87
2022/01/31 06:33:44;;;;;;;11.73;4.68;;;;;;;4.47;89.27;97548.56;4106948;28;20245;-87
2022/01/31 06:35:47;;;;;;;9.65;4.78;;;;;;;4.51;89.57;97555.22;4118274;28;20248;-87
2022/01/31 06:37:50;;;;;;;9.40;5.13;;;;;;;4.56;88.66;97558.41;4124904;28;20232;-87
2022/01/31 06:39:53;;;;;;;12.02;4.90;;;;;;;4.55;89.35;97556.75;4122543;28;20768;-87
2022/01/31 06:41:57;;;;;;;11.98;4.95;;;;;;;4.55;89.99;97552.41;4123890;28;20252;-89
2022/01/31 06:44:00;;;;;;;7.65;4.50;;;;;;;4.58;90.03;97562.56;4126251;28;20373;-87
2022/01/31 06:46:04;;;;;;;11.90;5.47;;;;;;;4.64;89.79;97564.00;4124592;28;20205;-87
2022/01/31 06:48:08;;;;;;;8.57;4.28;;;;;;;4.68;89.79;97560.34;4126570;28;20225;-87
2022/01/31 06:50:11;;;;;;;12.25;5.03;;;;;;;4.69;90.12;97567.97;4112349;28;20237;-87
2022/01/31 06:52:14;;;;;;;9.00;4.90;;;;;;;4.71;90.65;97574.72;4122117;28;20204;-87
2022/01/31 06:54:17;;;;;;;10.13;4.63;;;;;;;4.67;90.39;97574.97;4126659;28;20213;-87
2022/01/31 06:56:28;;;;;;;8.77;4.78;;;;;;;4.68;90.41;97570.66;4110995;28;20843;-87
2022/01/31 06:58:31;;;;;;;10.85;4.43;;;;;;;4.63;91.12;97570.91;4125876;28;20270;-87
2022/01/31 07:00:34;;;;;;;12.55;4.88;;;;;;;4.62;91.78;97579.56;4124331;28;20678;-87
2022/01/31 07:02:41;;;;;;;9.40;5.70;;;;;;;4.51;93.27;97576.72;4113640;28;20217;-87
2022/01/31 07:04:45;;;;;;;14.65;4.95;;;;;;;4.57;92.66;97580.72;4113311;28;20338;-87
2022/01/31 07:06:51;;;;;;;12.85;5.03;;;;;;;4.53;92.19;97574.88;4106473;28;20210;-87
2022/01/31 07:08:54;;;;;;;11.52;3.90;;;;;;;4.55;93.38;97580.78;4116649;28;20289;-87
2022/01/31 07:10:57;;;;;;;6.28;3.65;;;;;;;4.62;93.04;97587.31;4119746;28;20209;-87
2022/01/31 07:13:03;;;;;;;9.52;3.75;;;;;;;4.67;93.61;97590.47;4106999;28;20710;-90
2022/01/31 07:15:08;;;;;;;10.88;4.55;;;;;;;4.76;93.03;97579.66;4111371;28;20232;-94
2022/01/31 07:17:14;;;;;;;10.00;4.50;;;;;;;4.81;92.65;97580.22;4125110;28;20258;-87
2022/01/31 07:19:22;;;;;;;10.48;4.60;;;;;;;4.85;93.72;97581.75;4120540;28;20217;-89
2022/01/31 07:21:33;;;;;;;7.68;4.57;;;;;;;4.91;93.59;97586.56;4108612;28;20215;-88
2022/01/31 07:23:52;;;;;;;12.90;4.63;;;;;;;4.85;93.80;97569.66;4127865;28;20207;-88
2022/01/31 07:25:55;;;;;;;10.75;4.05;;;;;;;4.94;92.99;97570.91;4123920;28;20283;-89
2022/01/31 07:27:58;;;;;;;9.02;4.20;;;;;;;4.95;93.24;97562.25;4111021;28;20209;-89
2022/01/31 07:30:02;;;;;;;9.32;4.13;;;;;;;5.01;92.77;97572.25;4107823;28;20709;-89
2022/01/31 07:32:06;;;;;;;8.63;3.85;;;;;;;5.08;93.94;97566.63;4125154;28;20220;-89
2022/01/31 07:34:09;;;;;;;9.05;4.00;;;;;;;5.15;93.94;97576.56;4120518;28;20211;-88
2022/01/31 07:36:14;;;;;;;7.70;3.70;;;;;;;5.22;93.97;97580.47;4118297;28;20707;-88
2022/01/31 07:38:18;;;;;;;7.50;4.05;;;;;;;5.25;93.66;97551.06;4121942;28;20205;-89
2022/01/31 07:40:21;;;;;;;12.88;4.57;;;;;;;5.30;93.63;97560.19;4121342;28;20240;-87
2022/01/31 07:42:24;;;;;;;14.00;4.50;;;;;;;5.33;93.97;97565.19;4130984;28;20270;-87
2022/01/31 07:44:27;;;;;;;11.45;4.70;;;;;;;5.39;92.93;97561.44;4115989;28;20819;-87
2022/01/31 07:46:31;;;;;;;8.38;4.07;;;;;;;5.44;93.31;97556.84;4111878;28;20212;-87
2022/01/31 07:48:34;;;;;;;9.13;4.13;;;;;;;5.44;92.88;97562.88;4103032;28;20327;-86
2022/01/31 07:50:39;;;;;;;12.98;5.00;;;;;;;5.38;93.25;97555.44;4109056;28;20203;-87
2022/01/31 07:52:48;;;;;;;6.68;4.20;;;;;;;5.35;93.37;97547.88;4099057;28;20900;-87
2022/01/31 07:54:54;;;;;;;10.23;4.53;;;;;;;5.37;93.87;97573.63;4105400;28;20292;-95
2022/01/31 07:56:57;;;;;;;12.13;4.70;;;;;;;5.41;93.90;97570.78;4142426;28;20205;-91
2022/01/31 07:59:20;;;;;;;7.32;4.57;;;;;;;5.46;93.75;97561.00;4120060;28;20263;-89
2022/01/31 08:01:26;;;;;;;12.10;4.60;;;;;;;5.51;93.58;97564.16;4107343;28;20202;-91
2022/01/31 08:03:30;;;;;;;10.73;6.00;;;;;;;5.58;93.59;97564.63;4121186;28;20235;-90
2022/01/31 08:05:33;;;;;;;9.10;4.90;;;;;;;5.60;93.62;97573.16;4107232;28;20256;-88
2022/01/31 08:07:37;;;;;;;9.55;5.05;;;;;;;5.59;92.76;97574.88;4115086;28;20910;-88
2022/01/31 08:09:44;;;;;;;11.07;5.97;;;;;;;5.61;93.36;97568.72;4119795;28;20205;-88
2022/01/31 08:11:50;;;;;;;8.88;3.75;;;;;;;5.64;93.35;97570.31;4103135;28;20221;-88
2022/01/31 08:13:59;;;;;;;6.20;3.95;;;;;;;5.65;93.10;97583.16;4106933;28;20687;-86
2022/01/31 08:16:10;;;;;;;8.57;4.28;;;;;;;5.69;92.73;97576.88;4139629;28;20196;-88
2022/01/31 08:18:17;;;;;;;6.95;3.58;;;;;;;5.74;93.00;97585.25;4108324;28;20215;-87
2022/01/31 08:20:20;;;;;;;6.45;3.25;;;;;;;5.78;92.68;97575.56;4105025;28;20237;-90
2022/01/31 08:22:23;;;;;;;3.70;2.58;;;;;;;5.78;92.94;97578.97;4127429;28;20236;-86
2022/01/31 08:24:27;;;;;;;5.15;2.70;;;;;;;5.81;92.61;97576.19;4115764;28;20216;-87
2022/01/31 08:26:33;;;;;;;4.45;2.40;;;;;;;5.82;92.53;97574.47;4125778;28;20212;-86
2022/01/31 08:28:39;;;;;;;5.82;1.98;;;;;;;5.83;92.73;97565.75;4126805;28;20326;-86
2022/01/31 08:30:49;;;;;;;2.30;1.88;;;;;;;5.83;92.86;97566.59;4128133;28;20229;-88
2022/01/31 08:33:00;;;;;;;6.78;2.00;;;;;;;5.87;91.97;97572.44;4116541;28;20300;-86
2022/01/31 08:37:25;;;;;;;3.58;2.00;;;;;;;5.86;92.13;97565.56;4130113;28;20685;-85
2022/01/31 08:39:28;;;;;;;4.43;2.08;;;;;;;5.85;91.46;97569.06;4113531;28;20240;-85
2022/01/31 08:41:37;;;;;;;4.18;1.70;;;;;;;5.78;92.08;97562.63;4128581;28;20647;-85
2022/01/31 08:43:41;;;;;;;1.85;1.63;;;;;;;5.77;92.18;97563.53;4124941;28;20239;-85
2022/01/31 08:45:45;;;;;;;2.60;1.95;;;;;;;5.77;91.75;97563.53;4122208;28;20205;-86
2022/01/31 08:47:51;;;;;;;2.60;1.65;;;;;;;5.77;91.75;97555.75;4124327;28;20208;-86
2022/01/31 08:49:55;;;;;;;2.50;2.00;;;;;;;5.76;92.16;97559.28;4113579;28;20231;-85
2022/01/31 08:52:01;;;;;;;2.13;1.50;;;;;;;5.73;92.41;97559.44;4142252;28;20209;-85
2022/01/31 08:54:05;;;;;;;2.97;1.98;;;;;;;5.78;92.14;97547.91;4146629;28;20262;-86
2022/01/31 08:56:10;;;;;;;2.20;1.55;;;;;;;5.80;92.28;97547.81;4140315;28;20302;-85
2022/01/31 08:58:17;;;;;;;2.22;1.60;;;;;;;5.83;92.40;97542.47;4125771;28;20213;-85
2022/01/31 09:00:20;;;;;;;3.33;1.70;;;;;;;5.88;91.78;97543.88;4120927;28;20232;-86
2022/01/31 09:02:36;;;;;;;7.88;1.88;;;;;;;5.93;91.30;97541.03;4104454;28;20744;-85
2022/01/31 09:04:47;;;;;;;3.03;1.90;;;;;;;5.97;91.71;97542.50;4123694;28;20219;-86
2022/01/31 09:06:51;;;;;;;2.30;1.70;;;;;;;5.98;91.31;97534.63;4124617;28;20212;-85
2022/01/31 09:08:55;;;;;;;5.28;2.40;;;;;;;5.93;91.72;97525.50;4117134;28;20559;-86
2022/01/31 09:10:58;;;;;;;2.95;2.10;;;;;;;5.96;91.17;97526.13;4115058;28;20213;-87
2022/01/31 09:13:01;;;;;;;4.28;2.35;;;;;;;5.99;91.27;97522.56;4118708;28;20662;-85
2022/01/31 09:15:07;;;;;;;3.40;2.10;;;;;;;6.01;91.05;97534.44;4124708;28;20213;-87
2022/01/31 09:17:12;;;;;;;3.50;2.33;;;;;;;6.09;91.34;97532.28;4127203;28;20203;-85
2022/01/31 09:19:15;;;;;;;6.28;2.20;;;;;;;6.13;91.26;97519.06;4137864;28;20208;-87
2022/01/31 09:21:18;;;;;;;3.85;3.03;;;;;;;6.18;91.13;97511.00;4132624;28;20212;-86
2022/01/31 09:23:22;;;;;;;4.47;2.75;;;;;;;6.16;90.43;97523.19;4115263;28;20232;-86
2022/01/31 09:25:28;;;;;;;2.70;2.20;;;;;;;6.18;90.73;97514.41;4127941;28;20208;-85
2022/01/31 09:27:31;;;;;;;4.45;2.35;;;;;;;6.25;90.61;97520.06;4109363;28;21265;-85
2022/01/31 09:29:34;;;;;;;6.00;3.65;;;;;;;6.27;90.22;97519.03;4128936;28;20241;-85
2022/01/31 09:31:40;;;;;;;3.50;2.10;;;;;;;6.33;90.39;97510.91;4110315;28;20254;-86
2022/01/31 09:33:44;;;;;;;4.25;2.10;;;;;;;6.39;89.83;97512.28;4110049;28;20672;-87
2022/01/31 09:35:47;;;;;;;3.60;2.20;;;;;;;6.39;89.42;97499.31;4138444;28;20303;-86
2022/01/31 09:37:50;;;;;;;2.88;2.30;;;;;;;6.44;89.53;97502.47;4112008;28;20801;-87
2022/01/31 09:40:01;;;;;;;5.10;2.60;;;;;;;6.46;88.72;97498.03;4125596;28;20208;-84
2022/01/31 09:42:08;;;;;;;4.82;2.05;;;;;;;6.47;89.19;97507.47;4124403;28;20221;-86
2022/01/31 09:44:21;;;;;;;2.83;1.70;;;;;;;6.51;88.39;97495.97;4110982;28;20224;-86
2022/01/31 09:48:51;;;;;;;2.50;1.50;;;;;;;6.65;87.96;97496.81;4085969;28;20729;-87
2022/01/31 09:50:54;;;;;;;3.40;1.80;;;;;;;6.68;87.49;97499.19;4117154;28;20285;-86
2022/01/31 09:52:57;;;;;;;3.33;1.65;;;;;;;6.65;86.64;97502.81;4110356;28;20208;-86
2022/01/31 09:55:03;;;;;;;2.75;1.77;;;;;;;6.67;86.74;97492.34;4141568;28;20201;-86
2022/01/31 09:57:09;;;;;;;3.70;1.80;;;;;;;6.66;87.25;97501.03;4114914;28;20255;-85
2022/01/31 09:59:13;;;;;;;2.58;1.80;;;;;;;6.70;87.14;97497.34;4145155;28;20224;-85